logo
Search for airport 
image banner adimage banner adimage banner ad
image banner ad

EYMO - Moletai

Located in Moletai, Lithuania

ICAO - EYMO, IATA -

Data provided by Airmate  

General information

Coordinates: N55°6'46" E25°20'11"
Elevation is 653 feet MSL.
Magnetic variation is 7° East
View others Airports in Utena County

Operational data

Special qualification required
Current time UTC:
Current local time:
Weather at : EYVI - Vilnius/International ( 53 km )
METAR: EYVI 232050Z 34005KT CAVOK 21/17 Q1014 NOSIG
TAF: TAF EYVI 231700Z 2318/2418 VRB05KT 9000 SCT040 TEMPO 2318/2324 SCT005 BKN050CB PROB40 TEMPO 2318/2324 TSRA BECMG 2400/2401 SCT005 BKN010 TEMPO 2401/2406 5000 BR BKN005 BECMG 2406/2408 BKN020 TEMPO 2409/2418 VRB15KT 3000 TSRA SCT010 BKN030CB
View NOTAMs / SUP AIP / TFR affecting this airport [VIEW]
Communications frequencies: [VIEW]

Runways:

RWY identifierQFULength (ft)Width (ft)SurfaceLDA (ft)
0669°147666CONC+ASPH
24249°147666CONC+ASPH

Airport contact information

Address: Moletai Lithuania

Satellite view of EYMO